Time;durP1;ratioP1;P1;durP2;ratioP2;P2;SDS_P1;SDS_P2;PMS_P1;PMS_P2;Temp;Humidity;BMP_temperature;BMP_pressure;BME280_temperature;BME280_humidity;BME280_pressure;Samples;Min_cycle;Max_cycle;Signal;HPM_P1;HPM_P2
2021/04/16 00:01:11;;;;;;;4.53;2.75;;;;;;;3.45;59.74;102903.69;5261289;28;20033;-73
2021/04/16 00:03:42;;;;;;;3.25;2.45;;;;;;;3.40;60.25;102901.16;5269706;28;20036;-73
2021/04/16 00:06:14;;;;;;;3.92;2.33;;;;;;;3.34;59.75;102905.66;5265478;28;20032;-73
2021/04/16 00:08:46;;;;;;;4.93;2.20;;;;;;;3.32;60.45;102897.03;5260521;28;20024;-73
2021/04/16 00:11:25;;;;;;;5.60;2.40;;;;;;;3.28;61.04;102900.59;5267805;28;20090;-73
2021/04/16 00:13:57;;;;;;;3.70;2.47;;;;;;;3.23;60.95;102892.06;5245209;28;20205;-73
2021/04/16 00:16:30;;;;;;;3.88;2.33;;;;;;;3.11;60.71;102888.84;5264027;28;20040;-74
2021/04/16 00:19:01;;;;;;;4.07;2.25;;;;;;;3.18;61.00;102889.56;5261582;28;20033;-74
2021/04/16 00:21:33;;;;;;;3.35;2.40;;;;;;;3.14;61.66;102883.63;5260781;28;21046;-71
2021/04/16 00:24:05;;;;;;;4.32;2.15;;;;;;;3.12;60.78;102884.53;5260041;28;20029;-71
2021/04/16 00:26:36;;;;;;;3.95;2.22;;;;;;;3.07;60.84;102881.16;5261599;28;20383;-70
2021/04/16 00:29:08;;;;;;;5.45;2.55;;;;;;;3.04;61.15;102882.09;5251926;28;20139;-71
2021/04/16 00:31:52;;;;;;;4.60;2.42;;;;;;;3.03;60.91;102884.69;5265027;28;20056;-69
2021/04/16 00:34:26;;;;;;;3.83;2.30;;;;;;;2.93;61.63;102879.72;5263464;28;20033;-70
2021/04/16 00:36:57;;;;;;;3.88;2.53;;;;;;;2.87;61.72;102881.56;5265372;28;20028;-70
2021/04/16 00:39:28;;;;;;;6.18;2.40;;;;;;;2.79;62.40;102876.53;5262727;28;20028;-70
2021/04/16 00:42:00;;;;;;;3.95;2.30;;;;;;;2.82;62.44;102875.63;5264800;28;20039;-70
2021/04/16 00:44:31;;;;;;;4.43;2.53;;;;;;;2.79;62.80;102875.69;5265958;28;20511;-69
2021/04/16 00:47:07;;;;;;;3.70;2.45;;;;;;;2.79;62.25;102875.69;5267000;28;20052;-70
2021/04/16 00:49:42;;;;;;;4.05;2.28;;;;;;;2.64;62.51;102875.09;5267329;28;20028;-70
2021/04/16 00:52:20;;;;;;;5.60;2.33;;;;;;;2.61;63.36;102861.38;5264711;28;20032;-70
2021/04/16 00:54:52;;;;;;;3.38;2.10;;;;;;;2.54;62.83;102871.00;5264704;28;20024;-70
2021/04/16 00:57:24;;;;;;;4.43;2.63;;;;;;;2.52;63.27;102862.41;5266541;28;20031;-70
2021/04/16 00:59:57;;;;;;;3.70;2.25;;;;;;;2.49;63.07;102856.44;5263002;28;20507;-71
2021/04/16 01:02:28;;;;;;;3.30;1.92;;;;;;;2.48;63.11;102852.13;5264871;28;20477;-70
2021/04/16 01:04:59;;;;;;;4.35;2.00;;;;;;;2.53;62.95;102858.06;5262968;28;20017;-70
2021/04/16 01:07:31;;;;;;;4.88;2.58;;;;;;;2.41;63.58;102851.41;5264189;28;20545;-70
2021/04/16 01:10:04;;;;;;;4.65;2.13;;;;;;;2.32;64.29;102844.66;5264403;28;20029;-71
2021/04/16 01:12:36;;;;;;;3.95;1.92;;;;;;;2.27;63.87;102854.22;5266044;28;20083;-69
2021/04/16 01:15:31;;;;;;;5.00;2.20;;;;;;;2.29;64.42;102852.47;5265293;28;20056;-70
2021/04/16 01:18:13;;;;;;;4.72;2.20;;;;;;;2.18;64.26;102855.25;5265279;28;20040;-71
2021/04/16 01:20:48;;;;;;;4.45;2.13;;;;;;;2.13;65.25;102861.38;5263036;28;20021;-70
2021/04/16 01:23:44;;;;;;;3.30;2.17;;;;;;;2.12;65.10;102859.66;5264153;28;20029;-71
2021/04/16 01:26:19;;;;;;;3.50;2.13;;;;;;;2.13;64.60;102858.81;5242877;28;20033;-70
2021/04/16 01:28:50;;;;;;;3.83;2.38;;;;;;;2.08;65.57;102856.28;5266208;28;20028;-69
2021/04/16 01:31:25;;;;;;;4.13;2.30;;;;;;;2.07;65.15;102857.16;5269653;28;20028;-69
2021/04/16 01:33:57;;;;;;;3.15;2.17;;;;;;;1.95;65.63;102859.97;5269243;28;20111;-70
2021/04/16 01:36:31;;;;;;;4.43;2.33;;;;;;;1.90;65.90;102859.19;5269545;28;20056;-70
2021/04/16 01:39:04;;;;;;;5.30;2.75;;;;;;;1.97;66.10;102859.91;5266435;28;20029;-70
2021/04/16 01:41:35;;;;;;;3.85;2.28;;;;;;;1.82;66.13;102856.72;5268959;28;20055;-70
2021/04/16 01:44:13;;;;;;;4.50;2.45;;;;;;;1.76;66.21;102853.38;5269348;28;20037;-69
2021/04/16 01:46:57;;;;;;;3.90;2.15;;;;;;;1.72;66.53;102862.06;5267153;28;20132;-70
2021/04/16 01:49:32;;;;;;;4.47;2.15;;;;;;;1.69;65.30;102860.38;5259439;28;20036;-69
2021/04/16 01:52:06;;;;;;;4.45;2.38;;;;;;;1.66;66.55;102856.09;5268065;28;20474;-70
2021/04/16 01:54:43;;;;;;;4.47;2.30;;;;;;;1.62;66.86;102849.25;5263849;28;20509;-70
2021/04/16 01:57:19;;;;;;;3.92;2.50;;;;;;;1.46;67.06;102851.22;5267954;28;20024;-69
2021/04/16 01:59:51;;;;;;;3.42;2.30;;;;;;;1.42;66.79;102846.13;5268155;28;20090;-70
2021/04/16 02:02:27;;;;;;;3.37;2.27;;;;;;;1.33;67.28;102854.03;5263806;28;20105;-69
2021/04/16 02:04:59;;;;;;;3.58;2.33;;;;;;;1.22;67.96;102849.00;5264474;28;20025;-69
2021/04/16 02:07:30;;;;;;;3.08;2.30;;;;;;;1.23;67.60;102849.84;5264605;28;20028;-69
2021/04/16 02:10:05;;;;;;;5.38;2.60;;;;;;;1.19;68.32;102851.63;5266797;28;20082;-69
2021/04/16 02:12:38;;;;;;;3.60;2.33;;;;;;;1.16;68.22;102847.34;5266743;28;20036;-70
2021/04/16 02:15:10;;;;;;;4.22;2.65;;;;;;;1.11;68.67;102849.13;5266072;28;20039;-70
2021/04/16 02:17:41;;;;;;;4.03;2.33;;;;;;;1.09;68.63;102839.69;5267440;28;20044;-69
2021/04/16 02:20:20;;;;;;;5.10;2.78;;;;;;;1.08;68.82;102841.44;5267725;28;20028;-70
2021/04/16 02:22:51;;;;;;;4.10;2.55;;;;;;;0.97;68.93;102840.72;5267022;28;20025;-70
2021/04/16 02:25:23;;;;;;;5.20;2.30;;;;;;;0.91;68.83;102849.41;5265244;28;20482;-69
2021/04/16 02:27:54;;;;;;;4.30;2.28;;;;;;;0.90;69.15;102837.34;5269355;28;20032;-69
2021/04/16 02:30:32;;;;;;;6.18;2.80;;;;;;;0.85;69.43;102846.88;5269306;28;20024;-70
2021/04/16 02:33:04;;;;;;;3.67;2.22;;;;;;;0.82;69.70;102848.66;5266487;28;20478;-72
2021/04/16 02:35:35;;;;;;;4.95;2.72;;;;;;;0.80;69.87;102843.50;5269113;28;20031;-71
2021/04/16 02:38:06;;;;;;;5.25;2.45;;;;;;;0.76;69.47;102839.25;5267059;28;20025;-72
2021/04/16 02:40:37;;;;;;;3.67;2.60;;;;;;;0.69;69.60;102848.78;5266507;28;20056;-71
2021/04/16 02:43:09;;;;;;;4.05;2.47;;;;;;;0.70;69.96;102840.19;5266144;28;20040;-72
2021/04/16 02:45:41;;;;;;;4.80;2.92;;;;;;;0.56;69.65;102826.56;5267876;28;20489;-72
2021/04/16 02:48:12;;;;;;;4.43;2.53;;;;;;;0.61;70.02;102842.88;5267628;28;20469;-72
2021/04/16 02:50:43;;;;;;;5.75;2.83;;;;;;;0.50;70.26;102842.13;5267109;28;20483;-72
2021/04/16 02:53:15;;;;;;;5.10;2.35;;;;;;;0.61;70.06;102850.59;5268566;28;20035;-71
2021/04/16 02:55:46;;;;;;;5.38;2.67;;;;;;;0.61;70.03;102847.19;5265771;28;20048;-72
2021/04/16 02:58:18;;;;;;;4.55;2.50;;;;;;;0.53;70.23;102843.81;5268473;28;20017;-72
2021/04/16 03:00:49;;;;;;;4.70;2.75;;;;;;;0.53;70.28;102848.97;5267912;28;20033;-72
2021/04/16 03:03:20;;;;;;;4.03;2.78;;;;;;;0.46;70.36;102845.63;5268053;28;20021;-72
2021/04/16 03:05:52;;;;;;;4.70;2.92;;;;;;;0.41;70.63;102844.78;5264057;28;20029;-71
2021/04/16 03:08:23;;;;;;;5.80;2.92;;;;;;;0.51;70.35;102851.56;5267531;28;20497;-71
2021/04/16 03:10:55;;;;;;;3.72;2.63;;;;;;;0.42;70.71;102847.38;5268261;28;20401;-72
2021/04/16 03:13:26;;;;;;;5.53;3.00;;;;;;;0.40;71.75;102849.09;5266875;28;20024;-70
2021/04/16 03:15:58;;;;;;;3.88;2.67;;;;;;;0.39;71.71;102846.56;5265433;28;20035;-71
2021/04/16 03:18:29;;;;;;;5.28;2.78;;;;;;;0.32;71.60;102835.44;5267425;28;20077;-72
2021/04/16 03:21:01;;;;;;;4.45;2.70;;;;;;;0.31;70.80;102833.72;5267768;28;20040;-72
2021/04/16 03:23:32;;;;;;;4.70;3.00;;;;;;;0.39;71.04;102837.09;5266265;28;20047;-70
2021/04/16 03:26:03;;;;;;;4.80;2.97;;;;;;;0.35;71.07;102839.72;5266757;28;20119;-72
2021/04/16 03:28:35;;;;;;;3.83;2.67;;;;;;;0.33;71.64;102837.13;5265528;28;20044;-72
2021/04/16 03:31:06;;;;;;;4.07;2.80;;;;;;;0.35;71.42;102837.13;5271809;28;20020;-71
2021/04/16 03:33:38;;;;;;;4.63;2.55;;;;;;;0.34;71.60;102836.28;5263762;28;20694;-72
2021/04/16 03:36:09;;;;;;;3.63;2.40;;;;;;;0.28;71.88;102841.50;5267170;28;20521;-71
2021/04/16 03:38:41;;;;;;;4.45;2.78;;;;;;;0.25;72.07;102831.22;5268789;28;20036;-72
2021/04/16 03:41:12;;;;;;;6.50;2.70;;;;;;;0.30;72.00;102834.59;5266260;28;20032;-71
2021/04/16 03:43:44;;;;;;;4.45;2.75;;;;;;;0.27;72.25;102833.78;5265101;28;20131;-71
2021/04/16 03:46:15;;;;;;;5.28;2.58;;;;;;;0.31;72.12;102830.31;5267971;28;20030;-72
2021/04/16 03:48:47;;;;;;;4.88;3.13;;;;;;;0.29;71.91;102829.44;5266733;28;20025;-71
2021/04/16 03:51:18;;;;;;;3.90;2.58;;;;;;;0.24;71.84;102838.09;5264706;28;20585;-71
2021/04/16 03:53:49;;;;;;;6.03;2.22;;;;;;;0.32;72.27;102839.75;5266713;28;20020;-72
2021/04/16 03:56:21;;;;;;;7.35;3.13;;;;;;;0.28;71.86;102833.75;5266768;28;20040;-72
2021/04/16 03:58:52;;;;;;;5.25;2.72;;;;;;;0.30;72.35;102838.88;5264383;28;20028;-72
2021/04/16 04:01:23;;;;;;;5.15;2.83;;;;;;;0.21;72.42;102834.69;5260642;28;20032;-72
2021/04/16 04:03:54;;;;;;;7.10;2.90;;;;;;;0.26;72.12;102847.53;5262969;28;20444;-72
2021/04/16 04:06:26;;;;;;;3.78;2.78;;;;;;;0.09;72.17;102825.34;5261685;28;20580;-72
2021/04/16 04:08:57;;;;;;;4.70;2.55;;;;;;;0.14;72.42;102840.75;5265866;28;20052;-71
2021/04/16 04:11:28;;;;;;;6.53;2.80;;;;;;;0.10;72.61;102836.50;5264391;28;20636;-72
2021/04/16 04:14:01;;;;;;;3.97;2.42;;;;;;;0.12;72.21;102840.78;5247530;28;20300;-72
2021/04/16 04:17:06;;;;;;;6.22;3.17;;;;;;;0.16;72.69;102839.88;5264344;28;20123;-72
2021/04/16 04:19:38;;;;;;;3.72;2.60;;;;;;;0.09;72.76;102833.09;5266198;28;20041;-72
2021/04/16 04:22:09;;;;;;;5.40;2.92;;;;;;;0.12;73.26;102840.78;5264951;28;20487;-71
2021/04/16 04:24:40;;;;;;;5.32;3.15;;;;;;;0.01;73.80;102834.03;5265555;28;20036;-72
2021/04/16 04:27:13;;;;;;;5.00;2.78;;;;;;;0.07;73.60;102839.09;5265695;28;20036;-72
2021/04/16 04:29:45;;;;;;;5.07;2.80;;;;;;;0.13;73.92;102837.34;5266374;28;20025;-72
2021/04/16 04:32:16;;;;;;;5.50;2.88;;;;;;;0.07;73.06;102841.69;5266729;28;20302;-72
2021/04/16 04:34:48;;;;;;;5.00;3.10;;;;;;;0.13;73.02;102833.91;5264672;28;20078;-72
2021/04/16 04:37:19;;;;;;;6.80;3.15;;;;;;;0.12;72.93;102840.78;5264584;28;20025;-71
2021/04/16 04:39:50;;;;;;;4.95;3.30;;;;;;;-0.01;73.74;102837.44;5265832;28;20021;-72
2021/04/16 04:42:22;;;;;;;6.05;3.63;;;;;;;0.04;74.42;102841.69;5266253;28;20512;-72
2021/04/16 04:44:53;;;;;;;7.13;3.53;;;;;;;0.04;74.01;102839.13;5265952;28;20442;-71
2021/04/16 04:47:25;;;;;;;4.70;2.92;;;;;;;0.01;74.07;102837.47;5266882;28;20395;-72
2021/04/16 04:49:56;;;;;;;4.68;3.28;;;;;;;0.06;74.28;102845.97;5266366;28;20124;-72
2021/04/16 04:52:31;;;;;;;4.72;3.00;;;;;;;0.03;73.59;102842.56;5267139;28;20486;-71
2021/04/16 04:55:10;;;;;;;5.57;3.20;;;;;;;0.00;74.23;102840.91;5265253;28;20544;-72
2021/04/16 04:57:41;;;;;;;4.53;2.70;;;;;;;-0.06;75.04;102843.53;5269237;28;20032;-71
2021/04/16 05:00:15;;;;;;;5.53;2.92;;;;;;;-0.02;74.49;102845.19;5265646;28;20110;-72
2021/04/16 05:02:46;;;;;;;;;;;;;;;0.16;72.35;102845.03;5267028;28;20032;-71
2021/04/16 05:05:20;;;;;;;5.30;3.17;;;;;;;-0.01;74.10;102850.34;5264414;28;19939;-71
2021/04/16 05:07:51;;;;;;;;;;;;;;;0.19;72.49;102841.56;5263813;28;20547;-71
2021/04/16 05:10:23;;;;;;;6.47;3.78;;;;;;;-0.02;74.08;102845.19;5267561;28;19908;-71
2021/04/16 05:12:54;;;;;;;4.75;3.20;;;;;;;0.02;74.09;102836.56;5265998;28;20115;-71
2021/04/16 05:15:25;;;;;;;6.38;3.60;;;;;;;-0.04;74.97;102847.81;5265574;28;20040;-71
2021/04/16 05:17:57;;;;;;;6.60;3.03;;;;;;;-0.03;74.43;102843.50;5263178;28;20068;-71
2021/04/16 05:20:29;;;;;;;5.85;3.42;;;;;;;0.03;74.82;102843.44;5263324;28;20044;-71
2021/04/16 05:23:00;;;;;;;5.25;2.95;;;;;;;0.08;75.22;102849.41;5263847;28;20036;-71
2021/04/16 05:25:31;;;;;;;7.88;3.60;;;;;;;0.11;75.02;102844.22;5265976;28;20044;-71
2021/04/16 05:28:03;;;;;;;8.13;3.72;;;;;;;0.18;74.98;102842.44;5264775;28;20027;-71
2021/04/16 05:30:35;;;;;;;7.50;3.70;;;;;;;0.24;75.28;102832.94;5261795;28;20032;-71
2021/04/16 05:33:06;;;;;;;8.32;3.92;;;;;;;0.20;74.83;102841.56;5265582;28;20111;-70
2021/04/16 05:35:37;;;;;;;7.03;3.50;;;;;;;0.28;74.82;102848.38;5265558;28;20029;-70
2021/04/16 05:38:09;;;;;;;21.17;3.70;;;;;;;0.22;74.83;102849.28;5262966;28;20036;-71
2021/04/16 05:40:40;;;;;;;6.85;3.83;;;;;;;0.27;75.50;102849.25;5266429;28;20382;-70
2021/04/16 05:43:12;;;;;;;7.72;4.00;;;;;;;0.29;75.63;102843.19;5266416;28;20398;-71
2021/04/16 05:45:43;;;;;;;8.15;4.40;;;;;;;0.29;75.06;102842.34;5241618;28;20452;-70
2021/04/16 05:48:14;;;;;;;11.38;4.35;;;;;;;0.40;75.68;102838.78;5264219;28;20021;-70
2021/04/16 05:50:46;;;;;;;7.20;3.80;;;;;;;0.51;75.92;102845.56;5264623;28;20052;-71
2021/04/16 05:53:17;;;;;;;9.25;4.78;;;;;;;0.44;75.28;102844.75;5263810;28;20025;-71
2021/04/16 05:55:48;;;;;;;7.68;4.10;;;;;;;0.56;75.72;102847.22;5260679;28;20047;-71
2021/04/16 05:58:20;;;;;;;10.15;4.65;;;;;;;0.54;75.58;102841.22;5264239;28;20167;-71
2021/04/16 06:00:51;;;;;;;8.65;5.00;;;;;;;0.56;75.74;102834.31;5265260;28;20056;-70
2021/04/16 06:03:22;;;;;;;11.25;5.13;;;;;;;0.61;76.00;102837.72;5263245;28;20033;-69
2021/04/16 06:05:56;;;;;;;13.20;6.70;;;;;;;0.68;76.40;102846.22;5262844;28;20032;-69
2021/04/16 06:08:27;;;;;;;11.05;5.72;;;;;;;0.75;76.06;102849.59;5261922;28;20100;-69
2021/04/16 06:10:59;;;;;;;8.48;4.82;;;;;;;0.81;76.37;102850.38;5265810;28;20119;-68
2021/04/16 06:13:31;;;;;;;9.40;4.30;;;;;;;0.86;76.25;102853.75;5260700;28;20029;-69
2021/04/16 06:16:03;;;;;;;7.65;5.47;;;;;;;0.91;76.42;102843.34;5270797;28;20663;-69
2021/04/16 06:18:34;;;;;;;6.45;4.28;;;;;;;1.03;77.01;102863.88;5262238;28;20025;-69
2021/04/16 06:21:06;;;;;;;11.52;4.82;;;;;;;1.17;77.14;102872.28;5260216;28;20116;-69
2021/04/16 06:23:37;;;;;;;7.18;4.32;;;;;;;1.30;76.23;102867.81;5259679;28;20048;-68
2021/04/16 06:26:08;;;;;;;9.50;4.75;;;;;;;1.42;76.49;102859.03;5263919;28;20032;-69
2021/04/16 06:28:40;;;;;;;9.73;4.35;;;;;;;1.51;76.16;102863.22;5249563;28;20029;-69
2021/04/16 06:31:13;;;;;;;7.63;3.95;;;;;;;1.50;75.07;102854.63;5258901;28;20398;-68
2021/04/16 06:33:45;;;;;;;9.77;4.72;;;;;;;1.61;75.57;102864.81;5262566;28;20017;-70
2021/04/16 06:36:16;;;;;;;9.45;4.95;;;;;;;1.62;75.29;102872.50;5267273;28;20055;-70
2021/04/16 06:38:48;;;;;;;8.90;5.53;;;;;;;1.68;75.83;102858.66;5264332;28;20025;-69
2021/04/16 06:41:27;;;;;;;7.13;4.68;;;;;;;1.69;75.52;102862.94;5267385;28;20032;-69
2021/04/16 06:44:01;;;;;;;8.75;5.00;;;;;;;1.77;75.68;102865.41;5269085;28;20048;-69
2021/04/16 06:46:36;;;;;;;7.20;4.72;;;;;;;1.82;75.35;102859.31;5255210;28;20016;-69
2021/04/16 06:49:15;;;;;;;6.38;4.13;;;;;;;1.92;75.72;102862.59;5256790;28;20398;-69
2021/04/16 06:51:58;;;;;;;9.77;5.40;;;;;;;1.99;75.13;102864.19;5267202;28;20119;-69
2021/04/16 06:54:44;;;;;;;11.00;6.25;;;;;;;2.09;75.60;102862.31;5267942;28;20033;-70
2021/04/16 06:57:53;;;;;;;8.80;5.13;;;;;;;2.21;75.38;102863.84;5266476;28;20066;-71
2021/04/16 07:00:45;;;;;;;7.28;4.80;;;;;;;2.34;74.68;102863.56;5269257;28;20028;-68
2021/04/16 07:03:32;;;;;;;9.63;4.95;;;;;;;2.42;74.79;102853.97;5262540;28;20395;-70
2021/04/16 07:06:23;;;;;;;9.00;4.90;;;;;;;2.60;74.58;102855.34;5253586;28;20474;-70
2021/04/16 07:09:15;;;;;;;10.75;5.68;;;;;;;2.73;74.35;102853.38;5253697;28;20038;-69
2021/04/16 07:11:52;;;;;;;7.78;4.70;;;;;;;2.82;73.98;102862.69;5263261;28;20434;-70
2021/04/16 07:14:40;;;;;;;8.90;4.50;;;;;;;2.95;73.42;102863.28;5259965;28;20032;-70
2021/04/16 07:17:16;;;;;;;9.20;4.80;;;;;;;3.13;73.29;102861.16;5265643;28;20070;-71
2021/04/16 07:19:50;;;;;;;8.70;4.50;;;;;;;3.40;73.41;102858.84;5257453;28;20025;-70
2021/04/16 07:22:38;;;;;;;8.48;4.22;;;;;;;3.68;72.28;102861.69;5252881;28;20024;-71
2021/04/16 07:25:30;;;;;;;11.15;4.95;;;;;;;3.96;71.37;102861.88;5263959;28;20458;-70
2021/04/16 07:28:13;;;;;;;7.15;4.13;;;;;;;4.08;69.80;102860.69;5263985;28;20032;-70
2021/04/16 07:30:47;;;;;;;8.75;4.50;;;;;;;4.13;69.64;102857.13;5262808;28;20028;-70
2021/04/16 07:33:42;;;;;;;7.68;4.43;;;;;;;4.29;69.50;102861.91;5262659;28;20029;-70
2021/04/16 07:36:32;;;;;;;8.15;5.13;;;;;;;4.40;69.37;102859.88;5264945;28;20040;-70
2021/04/16 07:39:16;;;;;;;6.00;4.68;;;;;;;4.83;68.65;102869.94;5262539;28;20037;-70
2021/04/16 07:41:54;;;;;;;10.20;5.30;;;;;;;5.05;65.97;102864.13;5265889;28;20664;-70
2021/04/16 07:44:33;;;;;;;11.13;5.13;;;;;;;5.30;65.23;102862.50;5264534;28;20503;-70
2021/04/16 07:47:21;;;;;;;7.85;4.88;;;;;;;5.47;64.59;102864.56;5262791;28;20063;-68
2021/04/16 07:49:57;;;;;;;9.82;4.75;;;;;;;5.59;64.32;102866.78;5263185;28;20040;-70
2021/04/16 07:52:37;;;;;;;9.10;4.70;;;;;;;5.77;63.45;102864.50;5265034;28;20331;-70
2021/04/16 07:55:08;;;;;;;10.68;4.90;;;;;;;5.85;62.07;102857.31;5263950;28;20033;-69
2021/04/16 07:57:43;;;;;;;7.13;4.50;;;;;;;5.92;60.97;102860.56;5265075;28;20470;-70
2021/04/16 08:00:40;;;;;;;9.70;4.72;;;;;;;6.15;61.38;102859.81;5252267;28;20309;-69
2021/04/16 08:03:14;;;;;;;7.32;3.95;;;;;;;6.11;60.31;102864.28;5260579;28;20481;-69
2021/04/16 08:05:50;;;;;;;8.43;4.70;;;;;;;6.36;59.83;102866.03;5259896;28;20028;-69
2021/04/16 08:08:31;;;;;;;9.98;4.78;;;;;;;6.53;59.28;102861.94;5258800;28;20041;-69
2021/04/16 08:11:05;;;;;;;7.93;4.18;;;;;;;6.65;57.85;102857.22;5260659;28;20032;-70
2021/04/16 08:13:58;;;;;;;11.48;4.53;;;;;;;6.83;58.63;102859.16;5251045;28;20032;-70
2021/04/16 08:16:41;;;;;;;8.15;4.28;;;;;;;7.00;57.33;102863.72;5264580;28;20119;-69
2021/04/16 08:19:18;;;;;;;8.48;4.90;;;;;;;7.12;56.36;102860.63;5258691;28;20033;-69
2021/04/16 08:21:54;;;;;;;6.65;3.83;;;;;;;7.28;55.01;102861.78;5262696;28;20036;-69
2021/04/16 08:24:35;;;;;;;7.10;4.15;;;;;;;7.41;54.75;102859.53;5259944;28;20024;-70
2021/04/16 08:27:28;;;;;;;8.00;3.97;;;;;;;7.48;55.66;102858.38;5257700;28;20036;-69
2021/04/16 08:30:08;;;;;;;12.55;3.65;;;;;;;7.50;51.98;102860.91;5262084;28;20020;-70
2021/04/16 08:33:21;;;;;;;6.95;3.85;;;;;;;7.61;52.88;102860.50;5262350;28;20113;-69
2021/04/16 08:36:01;;;;;;;7.72;4.43;;;;;;;7.66;52.63;102861.19;5263736;28;20029;-70
2021/04/16 08:38:39;;;;;;;5.93;3.35;;;;;;;7.78;50.92;102850.25;5262258;28;20032;-69
2021/04/16 08:41:12;;;;;;;8.70;3.38;;;;;;;7.85;51.26;102851.69;5263986;28;20028;-69
2021/04/16 08:43:50;;;;;;;8.30;3.88;;;;;;;8.07;51.31;102858.59;5236421;28;20490;-70
2021/04/16 08:46:31;;;;;;;9.57;3.60;;;;;;;8.15;49.83;102846.09;5254632;28;20024;-69
2021/04/16 08:49:10;;;;;;;6.38;3.30;;;;;;;8.31;48.89;102854.13;5258798;28;20025;-69
2021/04/16 08:51:45;;;;;;;4.75;3.20;;;;;;;8.35;48.70;102846.09;5263249;28;20553;-69
2021/04/16 08:54:25;;;;;;;6.05;3.80;;;;;;;8.58;49.48;102839.03;5262256;28;20021;-68
2021/04/16 08:57:05;;;;;;;8.75;3.80;;;;;;;8.77;47.93;102842.53;5264384;28;20033;-69
2021/04/16 08:59:58;;;;;;;6.28;3.00;;;;;;;8.75;47.92;102842.59;5236157;28;20469;-70
2021/04/16 09:02:46;;;;;;;4.93;3.28;;;;;;;8.99;47.33;102842.41;5265285;28;20062;-69
2021/04/16 09:05:26;;;;;;;6.95;3.03;;;;;;;8.95;44.52;102840.84;5264457;28;20032;-70
2021/04/16 09:08:17;;;;;;;5.00;3.08;;;;;;;9.02;45.21;102843.09;5261285;28;20085;-70
2021/04/16 09:10:54;;;;;;;4.70;2.75;;;;;;;9.24;42.68;102832.50;5264724;28;20123;-69
2021/04/16 09:13:40;;;;;;;6.20;2.17;;;;;;;9.35;44.28;102833.72;5262322;28;20035;-68
2021/04/16 09:16:15;;;;;;;4.43;2.33;;;;;;;9.37;42.47;102839.75;5264432;28;20078;-67
2021/04/16 09:18:52;;;;;;;5.57;3.10;;;;;;;9.40;42.35;102840.44;5256681;28;20419;-67
2021/04/16 09:21:31;;;;;;;7.00;2.90;;;;;;;9.34;43.28;102839.88;5263796;28;20033;-67
2021/04/16 09:24:08;;;;;;;6.50;2.90;;;;;;;9.62;43.44;102832.41;5240379;28;20033;-68
2021/04/16 09:26:43;;;;;;;4.60;2.63;;;;;;;9.71;43.08;102831.94;5264610;28;20024;-68
2021/04/16 09:29:26;;;;;;;6.43;2.80;;;;;;;9.78;44.44;102832.50;5262751;28;20029;-68
2021/04/16 09:32:00;;;;;;;6.63;2.50;;;;;;;9.71;41.41;102829.34;5261976;28;20161;-68
2021/04/16 09:34:43;;;;;;;4.53;2.70;;;;;;;10.04;42.48;102831.19;5263044;28;20017;-69
2021/04/16 09:37:34;;;;;;;3.80;2.70;;;;;;;10.21;41.03;102827.69;5262846;28;20111;-70
2021/04/16 09:40:18;;;;;;;3.95;2.40;;;;;;;10.17;41.73;102831.41;5259845;28;20128;-68
2021/04/16 09:42:55;;;;;;;4.30;2.20;;;;;;;10.16;39.63;102827.94;5261759;28;20045;-68
2021/04/16 09:45:30;;;;;;;3.42;2.20;;;;;;;10.07;39.33;102817.06;5262645;28;20067;-68
2021/04/16 09:48:04;;;;;;;6.50;2.05;;;;;;;10.18;39.89;102812.13;5263201;28;20032;-68
2021/04/16 09:50:45;;;;;;;4.72;2.40;;;;;;;10.21;41.17;102815.44;5267057;28;20367;-68
2021/04/16 09:53:25;;;;;;;4.75;2.90;;;;;;;10.42;40.17;102812.69;5267173;28;20028;-68
2021/04/16 09:55:57;;;;;;;4.72;2.70;;;;;;;10.52;38.60;102813.03;5265317;28;20029;-68
2021/04/16 09:58:31;;;;;;;4.97;2.78;;;;;;;10.45;39.63;102812.50;5264529;28;20178;-68
2021/04/16 10:01:10;;;;;;;5.13;2.38;;;;;;;10.52;38.53;102807.78;5263369;28;20028;-69
2021/04/16 10:03:50;;;;;;;6.18;2.30;;;;;;;10.47;40.01;102802.78;5264017;28;20025;-68
2021/04/16 10:06:38;;;;;;;5.63;2.50;;;;;;;10.67;38.54;102805.19;5264896;28;20036;-68
2021/04/16 10:09:18;;;;;;;3.10;2.10;;;;;;;10.65;37.96;102807.06;5265640;28;20378;-68
2021/04/16 10:11:58;;;;;;;4.45;2.28;;;;;;;10.64;39.03;102794.00;5263820;28;20041;-68
2021/04/16 10:14:34;;;;;;;4.57;2.67;;;;;;;10.89;38.64;102804.03;5263923;28;20146;-68
2021/04/16 10:17:24;;;;;;;5.13;2.75;;;;;;;10.97;38.86;102796.59;5263651;28;20040;-68
2021/04/16 10:20:03;;;;;;;4.55;2.50;;;;;;;11.07;37.85;102794.31;5260206;28;20445;-68
2021/04/16 10:22:37;;;;;;;4.80;2.28;;;;;;;11.13;36.70;102796.56;5262227;28;20086;-68
2021/04/16 12:39:22;;;;;;;3.95;2.42;;;;;;;13.29;32.88;102681.69;5266104;28;20379;-72
2021/04/16 12:41:57;;;;;;;6.45;2.70;;;;;;;13.49;33.28;102675.13;5265012;28;20024;-68
2021/04/16 12:44:37;;;;;;;5.30;2.30;;;;;;;13.57;33.03;102678.06;5265630;28;20056;-67
2021/04/16 12:47:13;;;;;;;4.93;2.25;;;;;;;13.58;32.48;102673.63;5265986;28;20132;-68
2021/04/16 12:49:44;;;;;;;4.07;1.90;;;;;;;13.54;32.10;102669.53;5263075;28;20110;-68
2021/04/16 12:52:17;;;;;;;3.30;2.40;;;;;;;13.65;32.66;102671.44;5262388;28;20123;-68
2021/04/16 12:54:51;;;;;;;4.05;2.30;;;;;;;13.85;31.16;102669.09;5265286;28;20028;-68
2021/04/16 12:57:31;;;;;;;4.22;2.47;;;;;;;14.08;32.06;102664.84;5256159;28;20029;-68
2021/04/16 13:00:13;;;;;;;3.55;2.20;;;;;;;14.24;31.57;102655.84;5260444;28;20422;-69
2021/04/16 13:02:45;;;;;;;3.25;1.83;;;;;;;14.07;29.00;102664.97;5252327;28;20024;-68
2021/04/16 13:05:16;;;;;;;2.78;2.13;;;;;;;13.86;29.65;102667.28;5245930;28;20044;-68
2021/04/16 13:07:47;;;;;;;5.57;1.98;;;;;;;13.63;30.38;102666.25;5264709;28;20040;-67
2021/04/16 13:10:21;;;;;;;2.90;2.10;;;;;;;13.80;32.15;102660.66;5262356;28;20032;-70
2021/04/16 13:12:52;;;;;;;;;;;;;;;14.23;32.62;102660.28;5263631;28;20123;-68
2021/04/16 13:15:23;;;;;;;6.47;2.30;;;;;;;13.74;30.51;102662.88;5264870;28;19995;-68
2021/04/16 13:18:08;;;;;;;3.25;2.17;;;;;;;13.92;31.78;102655.50;5260409;28;20029;-70
2021/04/16 13:20:39;;;;;;;4.05;2.25;;;;;;;13.73;30.25;102655.94;5266233;28;20051;-71
2021/04/16 13:23:10;;;;;;;4.45;1.73;;;;;;;13.71;30.91;102658.66;5263526;28;20032;-69
2021/04/16 13:25:42;;;;;;;5.97;2.10;;;;;;;13.82;30.32;102648.22;5269456;28;20029;-68
2021/04/16 13:28:13;;;;;;;3.22;1.92;;;;;;;13.89;31.91;102640.72;5265685;28;20037;-69
2021/04/16 13:30:44;;;;;;;3.35;2.03;;;;;;;13.97;30.87;102637.56;5266489;28;20418;-68
2021/04/16 13:33:19;;;;;;;7.35;2.13;;;;;;;14.14;30.85;102639.00;5266390;28;20029;-68
2021/04/16 13:35:56;;;;;;;5.13;2.25;;;;;;;14.28;30.80;102634.44;5268574;28;20052;-69
2021/04/16 13:38:30;;;;;;;2.88;1.92;;;;;;;14.37;30.42;102632.94;5263329;28;20910;-68
2021/04/16 13:41:02;;;;;;;3.60;2.10;;;;;;;14.23;29.18;102633.06;5267363;28;20032;-69
2021/04/16 13:43:35;;;;;;;4.10;2.03;;;;;;;14.27;28.82;102627.47;5267850;28;20506;-68
2021/04/16 13:46:13;;;;;;;2.90;1.63;;;;;;;13.99;29.87;102633.03;5260705;28;20028;-68
2021/04/16 13:48:46;;;;;;;3.55;2.10;;;;;;;13.93;29.40;102620.28;5265350;28;20039;-70
2021/04/16 13:51:20;;;;;;;6.13;2.25;;;;;;;14.15;30.19;102612.53;5269097;28;20041;-69
2021/04/16 13:53:52;;;;;;;4.75;2.78;;;;;;;14.12;29.84;102612.75;5258208;28;20292;-68
2021/04/16 13:56:24;;;;;;;3.85;2.33;;;;;;;14.28;27.61;102612.47;5263523;28;20090;-70
2021/04/16 13:58:55;;;;;;;4.40;1.42;;;;;;;14.39;28.13;102614.34;5250684;28;20028;-70
2021/04/16 14:01:27;;;;;;;2.90;1.70;;;;;;;14.22;26.73;102618.22;5264190;28;20199;-70
2021/04/16 14:04:08;;;;;;;6.47;1.95;;;;;;;14.06;26.06;102611.41;5264874;28;20029;-70
2021/04/16 14:06:39;;;;;;;2.30;1.35;;;;;;;14.09;26.87;102610.31;5268810;28;20413;-67
2021/04/16 14:09:15;;;;;;;2.65;1.35;;;;;;;14.29;26.09;102606.28;5265818;28;20021;-68
2021/04/16 14:11:47;;;;;;;2.88;1.35;;;;;;;14.28;26.71;102604.56;5263881;28;20079;-69
2021/04/16 14:14:25;;;;;;;2.95;1.70;;;;;;;14.43;26.99;102597.34;5266202;28;20426;-68
2021/04/16 14:17:06;;;;;;;2.58;1.50;;;;;;;14.45;26.93;102585.75;5255463;28;20040;-67
2021/04/16 14:19:44;;;;;;;4.22;1.52;;;;;;;14.45;27.32;102587.53;5263841;28;20032;-69
2021/04/16 14:22:29;;;;;;;3.42;1.95;;;;;;;14.45;27.76;102585.75;5267375;28;20050;-66
2021/04/16 14:25:00;;;;;;;4.65;1.73;;;;;;;14.27;26.47;102587.91;5263107;28;20089;-67